createdAt,value
2022-11-26T00:01:17.721Z,101220.89
2022-11-26T00:06:31.951Z,101220.35
2022-11-26T00:11:37.656Z,101221.50
2022-11-26T00:16:44.162Z,101223.73
2022-11-26T00:21:50.093Z,101225.40
2022-11-26T00:26:59.137Z,101226.16
2022-11-26T00:32:05.696Z,101229.08
2022-11-26T00:37:21.140Z,101230.86
2022-11-26T00:42:27.130Z,101230.77
2022-11-26T00:47:32.908Z,101234.56
2022-11-26T00:52:38.943Z,101235.86
2022-11-26T00:57:44.984Z,101237.27
2022-11-26T01:02:50.889Z,101240.01
2022-11-26T01:08:02.476Z,101242.13
2022-11-26T01:13:11.129Z,101246.59
2022-11-26T01:18:20.104Z,101244.79
2022-11-26T01:23:26.287Z,101243.31
2022-11-26T01:28:31.898Z,101241.92
2022-11-26T01:33:37.649Z,101238.54
2022-11-26T01:38:43.654Z,101235.77
2022-11-26T01:43:52.020Z,101243.31
2022-11-26T01:49:18.913Z,101250.44
2022-11-26T01:54:24.872Z,101255.65
2022-11-26T01:59:37.363Z,101251.88
2022-11-26T02:04:49.335Z,101250.14
2022-11-26T02:09:55.146Z,101253.14
2022-11-26T02:15:00.807Z,101254.33
2022-11-26T02:20:35.365Z,101256.63
2022-11-26T02:26:06.856Z,101259.14
2022-11-26T02:31:16.656Z,101261.52
2022-11-26T02:36:27.897Z,101265.56
2022-11-26T02:41:43.872Z,101266.17
2022-11-26T02:46:54.482Z,101268.63
2022-11-26T02:52:02.848Z,101273.17
2022-11-26T02:57:13.044Z,101273.30
2022-11-26T03:02:24.743Z,101269.05
2022-11-26T03:07:34.421Z,101272.24
2022-11-26T03:12:40.361Z,101275.55
2022-11-26T03:17:46.394Z,101274.27
2022-11-26T03:22:52.124Z,101275.84
2022-11-26T03:27:57.809Z,101274.87
2022-11-26T03:33:03.569Z,101275.27
2022-11-26T03:38:09.689Z,101277.00
2022-11-26T03:43:15.332Z,101282.70
2022-11-26T03:48:21.204Z,101284.31
2022-11-26T03:53:27.535Z,101289.69
2022-11-26T03:58:33.280Z,101296.32
2022-11-26T04:03:39.789Z,101297.67
2022-11-26T04:08:46.431Z,101301.89
2022-11-26T04:13:52.108Z,101304.47
2022-11-26T04:18:57.909Z,101306.11
2022-11-26T04:24:03.650Z,101310.69
2022-11-26T04:29:09.296Z,101314.77
2022-11-26T04:34:15.020Z,101318.13
2022-11-26T04:39:21.113Z,101318.64
2022-11-26T04:44:26.989Z,101317.88
2022-11-26T04:49:32.885Z,101324.05
2022-11-26T04:54:38.788Z,101333.91
2022-11-26T04:59:44.820Z,101338.06
2022-11-26T05:04:51.810Z,101341.61
2022-11-26T05:09:57.603Z,101344.89
2022-11-26T05:15:03.890Z,101347.82
2022-11-26T05:20:11.531Z,101351.83
2022-11-26T05:25:17.736Z,101349.75
2022-11-26T05:30:23.726Z,101354.61
2022-11-26T05:35:29.682Z,101360.80
2022-11-26T05:40:35.542Z,101366.19
2022-11-26T05:45:41.329Z,101368.06
2022-11-26T05:50:51.563Z,101371.83
2022-11-26T05:56:00.159Z,101376.14
2022-11-26T06:01:10.323Z,101384.30
2022-11-26T06:06:16.157Z,101398.23
2022-11-26T06:11:22.040Z,101401.80
2022-11-26T06:16:27.983Z,101405.23
2022-11-26T06:21:33.693Z,101411.45
2022-11-26T06:26:39.633Z,101414.98
2022-11-26T06:31:46.105Z,101417.36
2022-11-26T06:36:52.141Z,101423.05
2022-11-26T06:41:58.181Z,101434.75
2022-11-26T06:47:04.220Z,101436.73
2022-11-26T06:52:10.068Z,101440.06
2022-11-26T06:57:16.085Z,101446.41
2022-11-26T07:02:22.492Z,101447.20
2022-11-26T07:07:28.428Z,101453.50
2022-11-26T07:12:34.416Z,101457.98
2022-11-26T07:17:40.018Z,101462.34
2022-11-26T07:22:46.497Z,101467.74
2022-11-26T07:27:52.330Z,101468.92
2022-11-26T07:32:58.079Z,101473.90
2022-11-26T07:38:04.408Z,101480.87
2022-11-26T07:43:11.552Z,101487.45
2022-11-26T07:48:22.791Z,101498.78
2022-11-26T07:53:32.586Z,101506.30
2022-11-26T07:58:39.971Z,101517.83
2022-11-26T08:03:48.452Z,101518.17
2022-11-26T08:08:54.381Z,101521.56
2022-11-26T08:14:02.662Z,101523.85
2022-11-26T08:19:11.659Z,101528.09
2022-11-26T08:24:20.091Z,101530.13
2022-11-26T08:29:26.305Z,101532.89
2022-11-26T08:34:33.791Z,101534.79
2022-11-26T08:39:40.032Z,101538.88
2022-11-26T08:44:45.966Z,101537.52
2022-11-26T08:49:51.690Z,101541.71
2022-11-26T08:54:57.432Z,101551.71
2022-11-26T09:00:05.461Z,101554.23
2022-11-26T09:05:11.424Z,101556.11
2022-11-26T09:10:17.688Z,101557.53
2022-11-26T09:15:23.694Z,101557.58
2022-11-26T09:20:29.513Z,101559.96
2022-11-26T09:25:37.680Z,101561.48
2022-11-26T09:30:44.293Z,101564.48
2022-11-26T09:35:50.584Z,101563.96
2022-11-26T09:41:04.970Z,101565.99
2022-11-26T09:46:13.771Z,101569.77
2022-11-26T09:51:20.725Z,101568.69
2022-11-26T09:56:28.229Z,101569.03
2022-11-26T10:01:34.723Z,101570.38
2022-11-26T10:06:50.634Z,101572.04
2022-11-26T10:12:10.944Z,101578.63
2022-11-26T10:17:35.952Z,101583.71
2022-11-26T10:22:56.747Z,101586.34
2022-11-26T10:28:15.289Z,101588.20
2022-11-26T10:33:22.038Z,101589.30
2022-11-26T10:38:29.134Z,101590.88
2022-11-26T10:43:35.588Z,101595.83
2022-11-26T10:48:41.849Z,101597.20
2022-11-26T10:53:55.154Z,101599.20
2022-11-26T10:59:05.897Z,101602.07
2022-11-26T11:04:27.614Z,101602.84
2022-11-26T11:09:36.075Z,101605.94
2022-11-26T11:14:44.082Z,101605.58
2022-11-26T11:19:50.061Z,101605.91
2022-11-26T11:24:57.684Z,101612.04
2022-11-26T11:32:06.571Z,101618.85
2022-11-26T11:37:17.667Z,101622.36
2022-11-26T11:42:23.784Z,101624.79
2022-11-26T11:47:37.179Z,101630.90
2022-11-26T11:52:56.176Z,101635.19
2022-11-26T11:58:26.653Z,101639.07
2022-11-26T12:03:55.693Z,101642.23
2022-11-26T12:09:12.234Z,101643.87
2022-11-26T12:14:23.169Z,101646.92
2022-11-26T12:19:39.659Z,101647.35
2022-11-26T12:24:50.893Z,101647.63
2022-11-26T12:30:01.287Z,101657.83
2022-11-26T12:35:12.704Z,101655.06
2022-11-26T12:40:30.615Z,101656.54
2022-11-26T12:45:49.213Z,101662.90
2022-11-26T12:50:58.840Z,101667.65
2022-11-26T12:56:15.015Z,101672.13
2022-11-26T13:01:21.107Z,101672.92
2022-11-26T13:06:46.736Z,101675.90
2022-11-26T13:12:02.012Z,101681.94
2022-11-26T13:17:13.393Z,101689.16
2022-11-26T13:22:46.281Z,101696.73
2022-11-26T13:28:02.320Z,101697.65
2022-11-26T13:33:31.124Z,101698.23
2022-11-26T13:38:48.139Z,101702.48
2022-11-26T13:44:49.513Z,101706.70
2022-11-26T13:49:56.863Z,101712.79
2022-11-26T13:55:05.842Z,101712.77
2022-11-26T14:00:23.283Z,101720.41
2022-11-26T14:06:08.296Z,101724.99
2022-11-26T14:11:54.538Z,101734.58
2022-11-26T14:17:23.659Z,101742.52
2022-11-26T14:22:32.070Z,101745.31
2022-11-26T14:27:41.558Z,101747.48
2022-11-26T14:32:55.269Z,101744.73
2022-11-26T14:38:02.399Z,101746.08
2022-11-26T14:43:19.739Z,101748.34
2022-11-26T14:48:27.925Z,101751.63
2022-11-26T14:53:36.370Z,101752.28
2022-11-26T14:58:46.002Z,101755.88
2022-11-26T15:04:02.942Z,101757.32
2022-11-26T15:09:15.762Z,101758.61
2022-11-26T15:14:27.624Z,101760.89
2022-11-26T15:19:44.591Z,101760.05
2022-11-26T15:24:54.539Z,101762.86
2022-11-26T15:30:00.877Z,101767.75
2022-11-26T15:35:14.882Z,101771.16
2022-11-26T15:40:26.412Z,101770.94
2022-11-26T15:45:39.306Z,101768.30
2022-11-26T15:50:47.087Z,101774.84
2022-11-26T15:55:53.797Z,101779.89
2022-11-26T16:01:02.561Z,101788.46
2022-11-26T16:06:25.732Z,101786.92
2022-11-26T16:11:47.422Z,101786.20
2022-11-26T16:16:53.740Z,101791.67
2022-11-26T16:22:04.792Z,101788.02
2022-11-26T16:27:28.246Z,101790.75
2022-11-26T16:32:34.016Z,101801.48
2022-11-26T16:37:45.081Z,101805.07
2022-11-26T16:42:52.848Z,101806.25
2022-11-26T16:48:28.869Z,101805.71
2022-11-26T16:53:34.513Z,101806.16
2022-11-26T16:58:41.095Z,101817.98
2022-11-26T17:03:53.858Z,101826.45
2022-11-26T17:09:00.274Z,101821.27
2022-11-26T17:14:06.170Z,101821.34
2022-11-26T17:19:40.950Z,101829.27
2022-11-26T17:25:12.629Z,101834.91
2022-11-26T17:30:31.774Z,101835.39
2022-11-26T17:35:44.176Z,101835.11
2022-11-26T17:40:50.304Z,101839.89
2022-11-26T17:45:56.986Z,101849.69
2022-11-26T17:51:02.788Z,101850.36
2022-11-26T17:56:17.188Z,101848.37
2022-11-26T18:01:23.181Z,101843.71
2022-11-26T18:06:37.713Z,101843.96
2022-11-26T18:11:46.878Z,101851.27
2022-11-26T18:16:53.144Z,101854.83
2022-11-26T18:21:59.008Z,101851.36
2022-11-26T18:27:05.770Z,101852.77
2022-11-26T18:32:12.774Z,101861.10
2022-11-26T18:37:19.251Z,101862.18
2022-11-26T18:42:40.809Z,101864.59
2022-11-26T18:47:46.786Z,101872.44
2022-11-26T18:52:55.155Z,101873.47
2022-11-26T18:58:05.269Z,101871.98
2022-11-26T19:03:14.477Z,101870.36
2022-11-26T19:08:20.470Z,101875.03
2022-11-26T19:13:27.298Z,101877.14
2022-11-26T19:18:33.179Z,101881.51
2022-11-26T19:23:38.889Z,101885.14
2022-11-26T19:28:45.802Z,101890.50
2022-11-26T19:33:58.224Z,101895.91
2022-11-26T19:39:04.899Z,101901.22
2022-11-26T19:44:10.737Z,101908.89
2022-11-26T19:49:16.748Z,101909.98
2022-11-26T19:54:23.396Z,101910.69
2022-11-26T19:59:29.322Z,101908.77
2022-11-26T20:04:35.307Z,101910.02
2022-11-26T20:09:41.551Z,101907.24
2022-11-26T20:14:49.240Z,101916.65
2022-11-26T20:19:55.051Z,101922.63
2022-11-26T20:25:01.117Z,101921.81
2022-11-26T20:30:09.161Z,101926.55
2022-11-26T20:35:15.001Z,101931.20
2022-11-26T20:40:21.116Z,101930.02
2022-11-26T20:45:26.907Z,101929.85
2022-11-26T20:50:32.842Z,101931.56
2022-11-26T20:55:38.804Z,101930.83
2022-11-26T21:00:44.744Z,101929.11
2022-11-26T21:05:50.685Z,101928.65
2022-11-26T21:10:56.824Z,101928.55
2022-11-26T21:16:05.951Z,101926.88
2022-11-26T21:21:15.087Z,101925.91
2022-11-26T21:26:22.976Z,101924.81
2022-11-26T21:31:31.684Z,101928.11
2022-11-26T21:36:38.470Z,101937.95
2022-11-26T21:41:44.588Z,101939.69
2022-11-26T21:46:50.633Z,101945.77
2022-11-26T21:51:56.690Z,101952.39
2022-11-26T21:57:03.272Z,101950.36
2022-11-26T22:02:10.264Z,101956.96
2022-11-26T22:07:16.417Z,101963.60
2022-11-26T22:12:22.664Z,101963.64
2022-11-26T22:17:28.664Z,101963.41
2022-11-26T22:22:34.671Z,101965.91
2022-11-26T22:27:40.551Z,101964.70
2022-11-26T22:32:46.852Z,101973.32
2022-11-26T22:37:53.685Z,101983.44
2022-11-26T22:47:43.268Z,101981.92
2022-11-26T22:52:49.754Z,101978.29
2022-11-26T22:57:55.534Z,101983.52
2022-11-26T23:03:01.850Z,101981.95
2022-11-26T23:08:08.163Z,101978.27
2022-11-26T23:13:16.178Z,101979.86
2022-11-26T23:18:21.998Z,101979.43
2022-11-26T23:23:27.918Z,101979.92
2022-11-26T23:28:34.869Z,101974.31
2022-11-26T23:33:40.920Z,101971.30
2022-11-26T23:38:46.840Z,101969.72
2022-11-26T23:43:52.692Z,101970.55
2022-11-26T23:48:58.679Z,101972.31
2022-11-26T23:54:04.627Z,101972.41
2022-11-26T23:59:11.374Z,101974.73
